sensor_id;sensor_type;location;lat;lon;timestamp;temperature;humidity
21830;DHT22;11077;50.264;6.798;2023-01-29T00:01:58;-3.40;99.90
21830;DHT22;11077;50.264;6.798;2023-01-29T00:04:25;-3.40;99.90
21830;DHT22;11077;50.264;6.798;2023-01-29T00:06:52;-3.40;99.90
21830;DHT22;11077;50.264;6.798;2023-01-29T00:09:19;-3.30;99.90
21830;DHT22;11077;50.264;6.798;2023-01-29T00:11:48;-3.30;99.90
21830;DHT22;11077;50.264;6.798;2023-01-29T00:14:15;-3.30;99.90
21830;DHT22;11077;50.264;6.798;2023-01-29T00:16:42;-3.30;99.90
21830;DHT22;11077;50.264;6.798;2023-01-29T00:19:10;-3.20;99.90
21830;DHT22;11077;50.264;6.798;2023-01-29T00:21:37;-3.20;99.90
21830;DHT22;11077;50.264;6.798;2023-01-29T00:24:04;-3.10;99.90
21830;DHT22;11077;50.264;6.798;2023-01-29T00:26:31;-3.20;99.90
21830;DHT22;11077;50.264;6.798;2023-01-29T00:29:00;-3.20;99.90
21830;DHT22;11077;50.264;6.798;2023-01-29T00:31:27;-3.20;99.90
21830;DHT22;11077;50.264;6.798;2023-01-29T00:33:54;-3.10;99.90
21830;DHT22;11077;50.264;6.798;2023-01-29T00:36:22;-3.20;99.90
21830;DHT22;11077;50.264;6.798;2023-01-29T00:38:54;-3.30;99.90
21830;DHT22;11077;50.264;6.798;2023-01-29T00:41:25;-3.30;99.90
21830;DHT22;11077;50.264;6.798;2023-01-29T00:44:12;-3.20;99.90
21830;DHT22;11077;50.264;6.798;2023-01-29T00:46:57;-3.40;99.90
21830;DHT22;11077;50.264;6.798;2023-01-29T00:49:24;-3.40;99.90
21830;DHT22;11077;50.264;6.798;2023-01-29T00:51:51;-3.40;99.90
21830;DHT22;11077;50.264;6.798;2023-01-29T00:54:32;-3.40;99.90
21830;DHT22;11077;50.264;6.798;2023-01-29T00:57:00;-3.40;99.90
21830;DHT22;11077;50.264;6.798;2023-01-29T00:59:28;-3.40;99.90
21830;DHT22;11077;50.264;6.798;2023-01-29T01:01:56;-3.40;99.90
21830;DHT22;11077;50.264;6.798;2023-01-29T01:04:40;-3.40;99.90
21830;DHT22;11077;50.264;6.798;2023-01-29T01:07:07;-3.40;99.90
21830;DHT22;11077;50.264;6.798;2023-01-29T01:09:35;-3.30;99.90
21830;DHT22;11077;50.264;6.798;2023-01-29T01:12:20;-3.50;99.90
21830;DHT22;11077;50.264;6.798;2023-01-29T01:14:49;-3.50;99.90
21830;DHT22;11077;50.264;6.798;2023-01-29T01:17:16;-3.60;99.90
21830;DHT22;11077;50.264;6.798;2023-01-29T01:19:43;-3.50;99.90
21830;DHT22;11077;50.264;6.798;2023-01-29T01:22:11;-3.60;99.90
21830;DHT22;11077;50.264;6.798;2023-01-29T01:24:38;-3.60;99.90
21830;DHT22;11077;50.264;6.798;2023-01-29T01:27:06;-3.40;99.90
21830;DHT22;11077;50.264;6.798;2023-01-29T01:29:33;-3.60;99.90
21830;DHT22;11077;50.264;6.798;2023-01-29T01:32:02;-3.50;99.90
21830;DHT22;11077;50.264;6.798;2023-01-29T01:34:30;-3.50;99.90
21830;DHT22;11077;50.264;6.798;2023-01-29T01:36:57;-3.60;99.90
21830;DHT22;11077;50.264;6.798;2023-01-29T01:39:25;-3.60;99.90
21830;DHT22;11077;50.264;6.798;2023-01-29T01:41:52;-3.70;99.90
21830;DHT22;11077;50.264;6.798;2023-01-29T01:44:55;-3.60;99.90
21830;DHT22;11077;50.264;6.798;2023-01-29T01:47:28;-3.70;99.90
21830;DHT22;11077;50.264;6.798;2023-01-29T01:49:59;-3.70;99.90
21830;DHT22;11077;50.264;6.798;2023-01-29T01:52:30;-3.80;99.90
21830;DHT22;11077;50.264;6.798;2023-01-29T01:54:59;-3.80;99.90
21830;DHT22;11077;50.264;6.798;2023-01-29T01:57:27;-3.70;99.90
21830;DHT22;11077;50.264;6.798;2023-01-29T02:00:01;-3.60;99.90
21830;DHT22;11077;50.264;6.798;2023-01-29T02:02:42;-3.70;99.90
21830;DHT22;11077;50.264;6.798;2023-01-29T02:05:28;-3.70;99.90
21830;DHT22;11077;50.264;6.798;2023-01-29T02:08:14;-3.80;99.90
21830;DHT22;11077;50.264;6.798;2023-01-29T02:11:01;-3.80;99.90
21830;DHT22;11077;50.264;6.798;2023-01-29T02:13:28;-3.80;99.90
21830;DHT22;11077;50.264;6.798;2023-01-29T02:15:55;-3.80;99.90
21830;DHT22;11077;50.264;6.798;2023-01-29T02:18:24;-3.80;99.90
21830;DHT22;11077;50.264;6.798;2023-01-29T02:21:06;-3.80;99.90
21830;DHT22;11077;50.264;6.798;2023-01-29T02:23:59;-3.70;99.90
21830;DHT22;11077;50.264;6.798;2023-01-29T02:26:39;-3.70;99.90
21830;DHT22;11077;50.264;6.798;2023-01-29T02:29:17;-3.70;99.90
21830;DHT22;11077;50.264;6.798;2023-01-29T02:31:58;-3.60;99.90
21830;DHT22;11077;50.264;6.798;2023-01-29T02:34:35;-3.80;99.90
21830;DHT22;11077;50.264;6.798;2023-01-29T02:37:25;-3.50;99.90
21830;DHT22;11077;50.264;6.798;2023-01-29T02:40:09;-3.80;99.90
21830;DHT22;11077;50.264;6.798;2023-01-29T02:42:43;-3.80;99.90
21830;DHT22;11077;50.264;6.798;2023-01-29T02:45:15;-3.90;99.90
21830;DHT22;11077;50.264;6.798;2023-01-29T02:47:47;-3.90;99.90
21830;DHT22;11077;50.264;6.798;2023-01-29T02:50:19;-3.90;99.90
21830;DHT22;11077;50.264;6.798;2023-01-29T02:52:53;-3.90;99.90
21830;DHT22;11077;50.264;6.798;2023-01-29T02:55:25;-4.00;99.90
21830;DHT22;11077;50.264;6.798;2023-01-29T02:57:55;-4.00;99.90
21830;DHT22;11077;50.264;6.798;2023-01-29T03:00:28;-4.00;99.90
21830;DHT22;11077;50.264;6.798;2023-01-29T03:02:59;-4.00;99.90
21830;DHT22;11077;50.264;6.798;2023-01-29T03:05:32;-4.00;99.90
21830;DHT22;11077;50.264;6.798;2023-01-29T03:08:05;-4.10;99.90
21830;DHT22;11077;50.264;6.798;2023-01-29T03:10:38;-4.10;99.90
21830;DHT22;11077;50.264;6.798;2023-01-29T03:13:11;-4.10;99.90
21830;DHT22;11077;50.264;6.798;2023-01-29T03:15:47;-4.20;99.90
21830;DHT22;11077;50.264;6.798;2023-01-29T03:18:36;-4.20;99.90
21830;DHT22;11077;50.264;6.798;2023-01-29T03:21:13;-4.20;99.90
21830;DHT22;11077;50.264;6.798;2023-01-29T03:24:00;-4.20;99.90
21830;DHT22;11077;50.264;6.798;2023-01-29T03:26:47;-4.30;99.90
21830;DHT22;11077;50.264;6.798;2023-01-29T03:29:37;-4.30;99.90
21830;DHT22;11077;50.264;6.798;2023-01-29T03:32:29;-4.30;99.90
21830;DHT22;11077;50.264;6.798;2023-01-29T03:35:00;-4.30;99.90
21830;DHT22;11077;50.264;6.798;2023-01-29T03:37:34;-4.30;99.90
21830;DHT22;11077;50.264;6.798;2023-01-29T03:40:07;-4.40;99.90
21830;DHT22;11077;50.264;6.798;2023-01-29T03:42:48;-4.40;99.90
21830;DHT22;11077;50.264;6.798;2023-01-29T03:45:20;-4.40;99.90
21830;DHT22;11077;50.264;6.798;2023-01-29T03:47:56;-4.40;99.90
21830;DHT22;11077;50.264;6.798;2023-01-29T03:50:35;-4.40;99.90
21830;DHT22;11077;50.264;6.798;2023-01-29T03:53:08;-4.30;99.90
21830;DHT22;11077;50.264;6.798;2023-01-29T03:55:42;-4.40;99.90
21830;DHT22;11077;50.264;6.798;2023-01-29T03:58:19;-4.40;99.90
21830;DHT22;11077;50.264;6.798;2023-01-29T04:00:53;-4.40;99.90
21830;DHT22;11077;50.264;6.798;2023-01-29T04:03:28;-4.40;99.90
21830;DHT22;11077;50.264;6.798;2023-01-29T04:06:03;-4.40;99.90
21830;DHT22;11077;50.264;6.798;2023-01-29T04:08:41;-4.40;99.90
21830;DHT22;11077;50.264;6.798;2023-01-29T04:11:14;-4.50;99.90
21830;DHT22;11077;50.264;6.798;2023-01-29T04:13:44;-4.50;99.90
21830;DHT22;11077;50.264;6.798;2023-01-29T04:16:18;-4.50;99.90
21830;DHT22;11077;50.264;6.798;2023-01-29T04:19:04;-4.50;99.90
21830;DHT22;11077;50.264;6.798;2023-01-29T04:21:37;-4.50;99.90
21830;DHT22;11077;50.264;6.798;2023-01-29T04:24:06;-4.60;99.90
21830;DHT22;11077;50.264;6.798;2023-01-29T04:26:48;-4.50;99.90
21830;DHT22;11077;50.264;6.798;2023-01-29T04:29:27;-4.50;99.90
21830;DHT22;11077;50.264;6.798;2023-01-29T04:32:07;-4.50;99.90
21830;DHT22;11077;50.264;6.798;2023-01-29T04:34:49;-4.50;99.90
21830;DHT22;11077;50.264;6.798;2023-01-29T04:37:25;-4.40;99.90
21830;DHT22;11077;50.264;6.798;2023-01-29T04:39:59;-4.40;99.90
21830;DHT22;11077;50.264;6.798;2023-01-29T04:42:33;-4.40;99.90
21830;DHT22;11077;50.264;6.798;2023-01-29T04:45:05;-4.50;99.90
21830;DHT22;11077;50.264;6.798;2023-01-29T04:47:47;-4.50;99.90
21830;DHT22;11077;50.264;6.798;2023-01-29T04:50:22;-4.60;99.90
21830;DHT22;11077;50.264;6.798;2023-01-29T04:52:54;-4.60;99.90
21830;DHT22;11077;50.264;6.798;2023-01-29T04:55:31;-4.60;99.90
21830;DHT22;11077;50.264;6.798;2023-01-29T04:58:05;-4.50;99.90
21830;DHT22;11077;50.264;6.798;2023-01-29T05:00:38;-4.50;99.90
21830;DHT22;11077;50.264;6.798;2023-01-29T05:03:08;-4.50;99.90
21830;DHT22;11077;50.264;6.798;2023-01-29T05:05:40;-4.40;99.90
21830;DHT22;11077;50.264;6.798;2023-01-29T05:08:12;-4.50;99.90
21830;DHT22;11077;50.264;6.798;2023-01-29T05:10:40;-4.60;99.90
21830;DHT22;11077;50.264;6.798;2023-01-29T05:13:10;-4.50;99.90
21830;DHT22;11077;50.264;6.798;2023-01-29T05:15:40;-4.40;99.90
21830;DHT22;11077;50.264;6.798;2023-01-29T05:18:10;-4.50;99.90
21830;DHT22;11077;50.264;6.798;2023-01-29T05:20:40;-4.50;99.90
21830;DHT22;11077;50.264;6.798;2023-01-29T05:23:09;-4.50;99.90
21830;DHT22;11077;50.264;6.798;2023-01-29T05:25:37;-4.50;99.90
21830;DHT22;11077;50.264;6.798;2023-01-29T05:28:04;-4.40;99.90
21830;DHT22;11077;50.264;6.798;2023-01-29T05:30:33;-4.40;99.90
21830;DHT22;11077;50.264;6.798;2023-01-29T05:33:01;-4.50;99.90
21830;DHT22;11077;50.264;6.798;2023-01-29T05:35:28;-4.50;99.90
21830;DHT22;11077;50.264;6.798;2023-01-29T05:37:57;-4.50;99.90
21830;DHT22;11077;50.264;6.798;2023-01-29T05:40:24;-4.60;99.90
21830;DHT22;11077;50.264;6.798;2023-01-29T05:42:52;-4.50;99.90
21830;DHT22;11077;50.264;6.798;2023-01-29T05:45:19;-4.50;99.90
21830;DHT22;11077;50.264;6.798;2023-01-29T05:47:46;-4.50;99.90
21830;DHT22;11077;50.264;6.798;2023-01-29T05:50:14;-4.50;99.90
21830;DHT22;11077;50.264;6.798;2023-01-29T05:52:41;-4.50;99.90
21830;DHT22;11077;50.264;6.798;2023-01-29T05:55:10;-4.50;99.90
21830;DHT22;11077;50.264;6.798;2023-01-29T05:57:39;-4.50;99.90
21830;DHT22;11077;50.264;6.798;2023-01-29T06:00:07;-4.50;99.90
21830;DHT22;11077;50.264;6.798;2023-01-29T06:02:38;-4.50;99.90
21830;DHT22;11077;50.264;6.798;2023-01-29T06:05:06;-4.50;99.90
21830;DHT22;11077;50.264;6.798;2023-01-29T06:07:33;-4.50;99.90
21830;DHT22;11077;50.264;6.798;2023-01-29T06:10:01;-4.60;99.90
21830;DHT22;11077;50.264;6.798;2023-01-29T06:12:30;-4.60;99.90
21830;DHT22;11077;50.264;6.798;2023-01-29T06:14:57;-4.70;99.90
21830;DHT22;11077;50.264;6.798;2023-01-29T06:17:24;-4.70;99.90
21830;DHT22;11077;50.264;6.798;2023-01-29T06:19:51;-4.70;99.90
21830;DHT22;11077;50.264;6.798;2023-01-29T06:22:19;-4.70;99.90
21830;DHT22;11077;50.264;6.798;2023-01-29T06:24:46;-4.70;99.90
21830;DHT22;11077;50.264;6.798;2023-01-29T06:27:13;-4.70;99.90
21830;DHT22;11077;50.264;6.798;2023-01-29T06:29:42;-4.70;99.90
21830;DHT22;11077;50.264;6.798;2023-01-29T06:32:10;-4.70;99.90
21830;DHT22;11077;50.264;6.798;2023-01-29T06:34:37;-4.70;99.90
21830;DHT22;11077;50.264;6.798;2023-01-29T06:37:04;-4.70;99.90
21830;DHT22;11077;50.264;6.798;2023-01-29T06:39:32;-4.70;99.90
21830;DHT22;11077;50.264;6.798;2023-01-29T06:42:00;-4.70;99.90
21830;DHT22;11077;50.264;6.798;2023-01-29T06:44:27;-4.70;99.90
21830;DHT22;11077;50.264;6.798;2023-01-29T06:46:56;-4.70;99.90
21830;DHT22;11077;50.264;6.798;2023-01-29T06:49:23;-4.80;99.90
21830;DHT22;11077;50.264;6.798;2023-01-29T06:51:51;-4.80;99.90
21830;DHT22;11077;50.264;6.798;2023-01-29T06:54:18;-4.80;99.90
21830;DHT22;11077;50.264;6.798;2023-01-29T06:56:46;-4.80;99.90
21830;DHT22;11077;50.264;6.798;2023-01-29T06:59:13;-4.80;99.90
21830;DHT22;11077;50.264;6.798;2023-01-29T07:01:41;-4.80;99.90
21830;DHT22;11077;50.264;6.798;2023-01-29T07:04:10;-4.80;99.90
21830;DHT22;11077;50.264;6.798;2023-01-29T07:06:38;-4.80;99.90
21830;DHT22;11077;50.264;6.798;2023-01-29T07:09:05;-4.80;99.90
21830;DHT22;11077;50.264;6.798;2023-01-29T07:11:33;-4.70;99.90
21830;DHT22;11077;50.264;6.798;2023-01-29T07:14:03;-4.70;99.90
21830;DHT22;11077;50.264;6.798;2023-01-29T07:16:30;-4.80;99.90
21830;DHT22;11077;50.264;6.798;2023-01-29T07:18:57;-4.90;99.90
21830;DHT22;11077;50.264;6.798;2023-01-29T07:21:26;-4.80;99.90
21830;DHT22;11077;50.264;6.798;2023-01-29T07:23:54;-4.80;99.90
21830;DHT22;11077;50.264;6.798;2023-01-29T07:26:21;-4.80;99.90
21830;DHT22;11077;50.264;6.798;2023-01-29T07:28:49;-4.80;99.90
21830;DHT22;11077;50.264;6.798;2023-01-29T07:31:16;-4.80;99.90
21830;DHT22;11077;50.264;6.798;2023-01-29T07:33:44;-4.80;99.90
21830;DHT22;11077;50.264;6.798;2023-01-29T07:36:12;-4.80;99.90
21830;DHT22;11077;50.264;6.798;2023-01-29T07:38:41;-4.80;99.90
21830;DHT22;11077;50.264;6.798;2023-01-29T07:41:10;-4.80;99.90
21830;DHT22;11077;50.264;6.798;2023-01-29T07:43:38;-4.80;99.90
21830;DHT22;11077;50.264;6.798;2023-01-29T07:46:06;-4.80;99.90
21830;DHT22;11077;50.264;6.798;2023-01-29T07:48:33;-4.80;99.90
21830;DHT22;11077;50.264;6.798;2023-01-29T07:51:01;-4.90;99.90
21830;DHT22;11077;50.264;6.798;2023-01-29T07:53:28;-4.90;99.90
21830;DHT22;11077;50.264;6.798;2023-01-29T07:55:58;-4.90;99.90
21830;DHT22;11077;50.264;6.798;2023-01-29T07:58:26;-4.90;99.90
21830;DHT22;11077;50.264;6.798;2023-01-29T08:00:53;-4.90;99.90
21830;DHT22;11077;50.264;6.798;2023-01-29T08:03:20;-4.80;99.90
21830;DHT22;11077;50.264;6.798;2023-01-29T08:05:47;-4.70;99.90
21830;DHT22;11077;50.264;6.798;2023-01-29T08:08:15;-4.90;99.90
21830;DHT22;11077;50.264;6.798;2023-01-29T08:10:42;-5.00;99.90
21830;DHT22;11077;50.264;6.798;2023-01-29T08:13:11;-4.90;99.90
21830;DHT22;11077;50.264;6.798;2023-01-29T08:15:41;-4.90;99.90
21830;DHT22;11077;50.264;6.798;2023-01-29T08:18:08;-4.90;99.90
21830;DHT22;11077;50.264;6.798;2023-01-29T08:20:36;-4.90;99.90
21830;DHT22;11077;50.264;6.798;2023-01-29T08:23:05;-4.80;99.90
21830;DHT22;11077;50.264;6.798;2023-01-29T08:25:34;-4.80;99.90
21830;DHT22;11077;50.264;6.798;2023-01-29T08:28:01;-4.90;99.90
21830;DHT22;11077;50.264;6.798;2023-01-29T08:30:32;-4.90;99.90
21830;DHT22;11077;50.264;6.798;2023-01-29T08:32:59;-4.90;99.90
21830;DHT22;11077;50.264;6.798;2023-01-29T08:35:26;-4.80;99.90
21830;DHT22;11077;50.264;6.798;2023-01-29T08:37:55;-4.80;99.90
21830;DHT22;11077;50.264;6.798;2023-01-29T08:40:24;-4.80;99.90
21830;DHT22;11077;50.264;6.798;2023-01-29T08:42:51;-4.80;99.90
21830;DHT22;11077;50.264;6.798;2023-01-29T08:45:18;-4.80;99.90
21830;DHT22;11077;50.264;6.798;2023-01-29T08:47:48;-4.60;99.90
21830;DHT22;11077;50.264;6.798;2023-01-29T08:50:16;-4.70;99.90
21830;DHT22;11077;50.264;6.798;2023-01-29T08:52:44;-4.70;99.90
21830;DHT22;11077;50.264;6.798;2023-01-29T08:55:11;-4.70;99.90
21830;DHT22;11077;50.264;6.798;2023-01-29T08:57:39;-4.70;99.90
21830;DHT22;11077;50.264;6.798;2023-01-29T09:00:08;-4.60;99.90
21830;DHT22;11077;50.264;6.798;2023-01-29T09:02:36;-4.60;99.90
21830;DHT22;11077;50.264;6.798;2023-01-29T09:05:05;-4.50;99.90
21830;DHT22;11077;50.264;6.798;2023-01-29T09:07:33;-4.50;99.90
21830;DHT22;11077;50.264;6.798;2023-01-29T09:10:00;-4.50;99.90
21830;DHT22;11077;50.264;6.798;2023-01-29T09:12:27;-4.60;99.90
21830;DHT22;11077;50.264;6.798;2023-01-29T09:14:55;-4.60;99.90
21830;DHT22;11077;50.264;6.798;2023-01-29T09:17:22;-4.60;99.90
21830;DHT22;11077;50.264;6.798;2023-01-29T09:19:49;-4.50;99.90
21830;DHT22;11077;50.264;6.798;2023-01-29T09:22:19;-4.50;99.90
21830;DHT22;11077;50.264;6.798;2023-01-29T09:24:46;-4.40;99.90
21830;DHT22;11077;50.264;6.798;2023-01-29T09:27:13;-4.40;99.90
21830;DHT22;11077;50.264;6.798;2023-01-29T09:29:41;-4.40;99.90
21830;DHT22;11077;50.264;6.798;2023-01-29T09:32:09;-4.30;99.90
21830;DHT22;11077;50.264;6.798;2023-01-29T09:34:36;-4.30;99.90
21830;DHT22;11077;50.264;6.798;2023-01-29T09:37:03;-4.30;99.90
21830;DHT22;11077;50.264;6.798;2023-01-29T09:39:33;-4.30;99.90
21830;DHT22;11077;50.264;6.798;2023-01-29T09:42:06;-4.20;99.90
21830;DHT22;11077;50.264;6.798;2023-01-29T09:44:46;-4.20;99.90
21830;DHT22;11077;50.264;6.798;2023-01-29T09:47:16;-4.20;99.90
21830;DHT22;11077;50.264;6.798;2023-01-29T09:49:46;-4.20;99.90
21830;DHT22;11077;50.264;6.798;2023-01-29T09:52:19;-4.20;99.90
21830;DHT22;11077;50.264;6.798;2023-01-29T09:54:54;-4.20;99.90
21830;DHT22;11077;50.264;6.798;2023-01-29T09:57:38;-4.20;99.90
21830;DHT22;11077;50.264;6.798;2023-01-29T10:00:14;-4.20;99.90
21830;DHT22;11077;50.264;6.798;2023-01-29T10:02:58;-4.20;99.90
21830;DHT22;11077;50.264;6.798;2023-01-29T10:06:01;-4.00;99.90
21830;DHT22;11077;50.264;6.798;2023-01-29T10:11:47;-4.10;99.90
21830;DHT22;11077;50.264;6.798;2023-01-29T10:14:21;-4.00;99.90
21830;DHT22;11077;50.264;6.798;2023-01-29T10:17:01;-4.00;99.90
21830;DHT22;11077;50.264;6.798;2023-01-29T10:19:53;-4.00;99.90
21830;DHT22;11077;50.264;6.798;2023-01-29T10:22:41;-4.00;99.90
21830;DHT22;11077;50.264;6.798;2023-01-29T10:25:11;-4.00;99.90
21830;DHT22;11077;50.264;6.798;2023-01-29T10:27:47;-4.00;99.90
21830;DHT22;11077;50.264;6.798;2023-01-29T10:30:29;-3.90;99.90
21830;DHT22;11077;50.264;6.798;2023-01-29T10:33:01;-3.90;99.90
21830;DHT22;11077;50.264;6.798;2023-01-29T10:35:30;-3.90;99.90
21830;DHT22;11077;50.264;6.798;2023-01-29T10:38:11;-3.80;99.90
21830;DHT22;11077;50.264;6.798;2023-01-29T10:40:44;-3.80;99.90
21830;DHT22;11077;50.264;6.798;2023-01-29T10:43:20;-3.70;99.90
21830;DHT22;11077;50.264;6.798;2023-01-29T10:45:59;-3.60;99.90
21830;DHT22;11077;50.264;6.798;2023-01-29T10:48:52;-3.50;99.90
21830;DHT22;11077;50.264;6.798;2023-01-29T10:51:48;-3.40;99.90
21830;DHT22;11077;50.264;6.798;2023-01-29T10:54:45;-3.30;99.90
21830;DHT22;11077;50.264;6.798;2023-01-29T10:57:23;-3.20;99.90
21830;DHT22;11077;50.264;6.798;2023-01-29T11:00:02;-3.10;99.90
21830;DHT22;11077;50.264;6.798;2023-01-29T11:02:33;-2.90;99.90
21830;DHT22;11077;50.264;6.798;2023-01-29T11:05:00;-2.80;99.90
21830;DHT22;11077;50.264;6.798;2023-01-29T11:07:27;-2.70;99.90
21830;DHT22;11077;50.264;6.798;2023-01-29T11:10:02;-2.60;99.90
21830;DHT22;11077;50.264;6.798;2023-01-29T11:12:30;-2.50;99.90
21830;DHT22;11077;50.264;6.798;2023-01-29T11:15:04;-2.40;99.90
21830;DHT22;11077;50.264;6.798;2023-01-29T11:17:32;-2.30;99.90
21830;DHT22;11077;50.264;6.798;2023-01-29T11:20:00;-2.30;99.90
21830;DHT22;11077;50.264;6.798;2023-01-29T11:22:28;-2.30;99.90
21830;DHT22;11077;50.264;6.798;2023-01-29T11:25:14;-2.30;99.90
21830;DHT22;11077;50.264;6.798;2023-01-29T11:27:44;-2.00;99.90
21830;DHT22;11077;50.264;6.798;2023-01-29T11:30:20;-2.10;99.90
21830;DHT22;11077;50.264;6.798;2023-01-29T11:32:51;-2.10;99.90
21830;DHT22;11077;50.264;6.798;2023-01-29T11:35:23;-2.10;99.90
21830;DHT22;11077;50.264;6.798;2023-01-29T11:37:51;-2.10;99.90
21830;DHT22;11077;50.264;6.798;2023-01-29T11:40:34;-2.00;99.90
21830;DHT22;11077;50.264;6.798;2023-01-29T11:43:17;-2.00;99.90
21830;DHT22;11077;50.264;6.798;2023-01-29T11:45:47;-2.00;99.90
21830;DHT22;11077;50.264;6.798;2023-01-29T11:48:17;-2.00;99.90
21830;DHT22;11077;50.264;6.798;2023-01-29T11:50:51;-2.00;99.90
21830;DHT22;11077;50.264;6.798;2023-01-29T11:56:20;-1.90;99.90
21830;DHT22;11077;50.264;6.798;2023-01-29T11:58:49;-1.80;99.90
21830;DHT22;11077;50.264;6.798;2023-01-29T12:01:29;-1.70;99.90
21830;DHT22;11077;50.264;6.798;2023-01-29T12:03:59;-1.60;99.90
21830;DHT22;11077;50.264;6.798;2023-01-29T12:06:32;-1.50;99.90
21830;DHT22;11077;50.264;6.798;2023-01-29T12:09:02;-1.40;99.90
21830;DHT22;11077;50.264;6.798;2023-01-29T12:11:34;-1.40;99.90
21830;DHT22;11077;50.264;6.798;2023-01-29T12:14:04;-1.40;99.90
21830;DHT22;11077;50.264;6.798;2023-01-29T12:16:36;-1.30;99.90
21830;DHT22;11077;50.264;6.798;2023-01-29T12:19:12;-1.20;99.90
21830;DHT22;11077;50.264;6.798;2023-01-29T12:21:45;-1.20;99.90
21830;DHT22;11077;50.264;6.798;2023-01-29T12:24:24;-1.20;99.90
21830;DHT22;11077;50.264;6.798;2023-01-29T12:27:03;-1.10;99.90
21830;DHT22;11077;50.264;6.798;2023-01-29T12:29:39;-1.10;99.90
21830;DHT22;11077;50.264;6.798;2023-01-29T12:32:18;-1.00;99.90
21830;DHT22;11077;50.264;6.798;2023-01-29T12:34:52;-0.90;99.90
21830;DHT22;11077;50.264;6.798;2023-01-29T12:37:25;-0.90;99.90
21830;DHT22;11077;50.264;6.798;2023-01-29T12:39:54;-0.80;99.90
21830;DHT22;11077;50.264;6.798;2023-01-29T12:42:22;-0.80;99.90
21830;DHT22;11077;50.264;6.798;2023-01-29T12:44:53;-0.80;99.90
21830;DHT22;11077;50.264;6.798;2023-01-29T12:47:25;-0.80;99.90
21830;DHT22;11077;50.264;6.798;2023-01-29T12:49:56;-0.70;99.90
21830;DHT22;11077;50.264;6.798;2023-01-29T12:52:35;-0.70;99.90
21830;DHT22;11077;50.264;6.798;2023-01-29T12:55:09;-0.80;99.90
21830;DHT22;11077;50.264;6.798;2023-01-29T12:57:41;-0.80;99.90
21830;DHT22;11077;50.264;6.798;2023-01-29T13:00:13;-0.80;99.90
21830;DHT22;11077;50.264;6.798;2023-01-29T13:02:48;-0.80;99.90
21830;DHT22;11077;50.264;6.798;2023-01-29T13:05:23;-0.80;99.90
21830;DHT22;11077;50.264;6.798;2023-01-29T13:07:55;-0.90;99.90
21830;DHT22;11077;50.264;6.798;2023-01-29T13:10:25;-0.80;99.90
21830;DHT22;11077;50.264;6.798;2023-01-29T13:12:57;-0.80;99.90
21830;DHT22;11077;50.264;6.798;2023-01-29T13:15:29;-0.70;99.90
21830;DHT22;11077;50.264;6.798;2023-01-29T13:18:19;-0.60;99.90
21830;DHT22;11077;50.264;6.798;2023-01-29T13:20:47;-0.70;99.90
21830;DHT22;11077;50.264;6.798;2023-01-29T13:23:20;-0.80;99.90
21830;DHT22;11077;50.264;6.798;2023-01-29T13:25:50;-0.80;99.90
21830;DHT22;11077;50.264;6.798;2023-01-29T13:28:18;-0.80;99.90
21830;DHT22;11077;50.264;6.798;2023-01-29T13:30:46;-0.90;99.90
21830;DHT22;11077;50.264;6.798;2023-01-29T13:33:35;-0.90;99.90
21830;DHT22;11077;50.264;6.798;2023-01-29T13:36:04;-0.90;99.90
21830;DHT22;11077;50.264;6.798;2023-01-29T13:38:32;-0.90;99.90
21830;DHT22;11077;50.264;6.798;2023-01-29T13:41:03;-0.90;99.90
21830;DHT22;11077;50.264;6.798;2023-01-29T13:43:34;-0.90;99.90
21830;DHT22;11077;50.264;6.798;2023-01-29T13:46:07;-0.90;99.90
21830;DHT22;11077;50.264;6.798;2023-01-29T13:48:40;-1.00;99.90
21830;DHT22;11077;50.264;6.798;2023-01-29T13:51:11;-1.00;99.90
21830;DHT22;11077;50.264;6.798;2023-01-29T13:53:43;-1.10;99.90
21830;DHT22;11077;50.264;6.798;2023-01-29T13:56:29;-1.10;99.90
21830;DHT22;11077;50.264;6.798;2023-01-29T13:58:57;-1.10;99.90
21830;DHT22;11077;50.264;6.798;2023-01-29T14:04:25;-1.10;99.90
21830;DHT22;11077;50.264;6.798;2023-01-29T14:06:55;-1.10;99.90
21830;DHT22;11077;50.264;6.798;2023-01-29T14:12:50;-1.10;99.90
21830;DHT22;11077;50.264;6.798;2023-01-29T14:15:38;-1.10;99.90
21830;DHT22;11077;50.264;6.798;2023-01-29T14:18:23;-1.10;99.90
21830;DHT22;11077;50.264;6.798;2023-01-29T14:21:03;-1.10;99.90
21830;DHT22;11077;50.264;6.798;2023-01-29T14:23:38;-1.10;99.90
21830;DHT22;11077;50.264;6.798;2023-01-29T14:26:39;-1.20;99.90
21830;DHT22;11077;50.264;6.798;2023-01-29T14:29:17;-1.30;99.90
21830;DHT22;11077;50.264;6.798;2023-01-29T14:31:48;-1.40;99.90
21830;DHT22;11077;50.264;6.798;2023-01-29T14:34:21;-1.40;99.90
21830;DHT22;11077;50.264;6.798;2023-01-29T14:36:53;-1.50;99.90
21830;DHT22;11077;50.264;6.798;2023-01-29T14:39:32;-1.70;99.90
21830;DHT22;11077;50.264;6.798;2023-01-29T14:42:02;-1.90;99.90
21830;DHT22;11077;50.264;6.798;2023-01-29T14:50:46;-1.80;99.90
21830;DHT22;11077;50.264;6.798;2023-01-29T14:53:30;-2.00;99.90
21830;DHT22;11077;50.264;6.798;2023-01-29T14:56:02;-2.00;99.90
21830;DHT22;11077;50.264;6.798;2023-01-29T14:58:35;-2.00;99.90
21830;DHT22;11077;50.264;6.798;2023-01-29T15:01:06;-2.00;99.90
21830;DHT22;11077;50.264;6.798;2023-01-29T15:03:43;-2.00;99.90
21830;DHT22;11077;50.264;6.798;2023-01-29T15:06:16;-1.90;99.90
21830;DHT22;11077;50.264;6.798;2023-01-29T15:08:50;-2.00;99.90
21830;DHT22;11077;50.264;6.798;2023-01-29T15:11:26;-2.00;99.90
21830;DHT22;11077;50.264;6.798;2023-01-29T15:14:10;-2.10;99.90
21830;DHT22;11077;50.264;6.798;2023-01-29T15:16:47;-2.10;99.90
21830;DHT22;11077;50.264;6.798;2023-01-29T15:19:19;-2.20;99.90
21830;DHT22;11077;50.264;6.798;2023-01-29T15:22:10;-2.20;99.90
21830;DHT22;11077;50.264;6.798;2023-01-29T15:24:44;-2.00;99.90
21830;DHT22;11077;50.264;6.798;2023-01-29T15:27:15;-2.30;99.90
21830;DHT22;11077;50.264;6.798;2023-01-29T15:29:47;-2.30;99.90
21830;DHT22;11077;50.264;6.798;2023-01-29T15:32:26;-2.40;99.90
21830;DHT22;11077;50.264;6.798;2023-01-29T15:34:58;-2.30;99.90
21830;DHT22;11077;50.264;6.798;2023-01-29T15:37:30;-2.30;99.90
21830;DHT22;11077;50.264;6.798;2023-01-29T15:40:00;-2.30;99.90
21830;DHT22;11077;50.264;6.798;2023-01-29T15:42:40;-2.30;99.90
21830;DHT22;11077;50.264;6.798;2023-01-29T15:45:23;-2.30;99.90
21830;DHT22;11077;50.264;6.798;2023-01-29T15:47:54;-2.30;99.90
21830;DHT22;11077;50.264;6.798;2023-01-29T15:50:24;-2.30;99.90
21830;DHT22;11077;50.264;6.798;2023-01-29T15:56:50;-2.40;99.90
21830;DHT22;11077;50.264;6.798;2023-01-29T15:59:20;-2.50;99.90
21830;DHT22;11077;50.264;6.798;2023-01-29T16:01:49;-2.50;99.90
21830;DHT22;11077;50.264;6.798;2023-01-29T16:04:19;-2.50;99.90
21830;DHT22;11077;50.264;6.798;2023-01-29T16:06:52;-2.60;99.90
21830;DHT22;11077;50.264;6.798;2023-01-29T16:13:17;-2.60;99.90
21830;DHT22;11077;50.264;6.798;2023-01-29T16:15:54;-2.50;99.90
21830;DHT22;11077;50.264;6.798;2023-01-29T16:18:24;-2.50;99.90
21830;DHT22;11077;50.264;6.798;2023-01-29T16:20:54;-2.60;99.90
21830;DHT22;11077;50.264;6.798;2023-01-29T16:23:24;-2.60;99.90
21830;DHT22;11077;50.264;6.798;2023-01-29T16:26:04;-2.60;99.90
21830;DHT22;11077;50.264;6.798;2023-01-29T16:28:39;-2.60;99.90
21830;DHT22;11077;50.264;6.798;2023-01-29T16:31:06;-2.60;99.90